createdAt,value
2023-06-16T00:00:37.154Z,8.9
2023-06-16T00:02:37.636Z,6.2
2023-06-16T00:04:36.438Z,8.5
2023-06-16T00:06:37.233Z,7.5
2023-06-16T00:08:37.520Z,8.7
2023-06-16T00:10:36.282Z,6.5
2023-06-16T00:12:36.458Z,9.9
2023-06-16T00:20:36.884Z,8.6
2023-06-16T00:22:35.986Z,7.8
2023-06-16T00:24:35.406Z,7.2
2023-06-16T00:26:35.899Z,8.5
2023-06-16T00:30:35.352Z,6.3
2023-06-16T00:32:35.144Z,10.1
2023-06-16T00:34:34.994Z,7.1
2023-06-16T00:36:35.242Z,8.8
2023-06-16T00:38:34.897Z,8.6
2023-06-16T00:44:34.706Z,7.6
2023-06-16T00:46:36.137Z,8.3
2023-06-16T00:48:34.259Z,6.6
2023-06-16T00:50:34.177Z,8.0
2023-06-16T00:52:35.218Z,6.7
2023-06-16T00:54:33.957Z,6.0
2023-06-16T00:56:36.852Z,6.9
2023-06-16T00:58:33.871Z,7.5
2023-06-16T01:00:36.202Z,8.1
2023-06-16T01:02:33.941Z,7.1
2023-06-16T01:04:33.626Z,9.2
2023-06-16T01:06:45.313Z,7.3
2023-06-16T01:08:38.944Z,7.3
2023-06-16T01:10:39.858Z,6.4
2023-06-16T01:12:41.987Z,6.8
2023-06-16T01:14:46.345Z,7.9
2023-06-16T01:16:35.457Z,7.4
2023-06-16T01:20:42.431Z,7.7
2023-06-16T01:22:50.253Z,7.4
2023-06-16T01:24:33.486Z,8.1
2023-06-16T01:26:36.386Z,8.2
2023-06-16T01:28:34.345Z,6.4
2023-06-16T01:30:32.937Z,5.8
2023-06-16T01:32:34.001Z,7.1
2023-06-16T01:34:33.275Z,7.1
2023-06-16T01:36:33.052Z,7.6
2023-06-16T01:38:32.438Z,6.9
2023-06-16T01:40:31.909Z,8.7
2023-06-16T01:42:31.740Z,7.2
2023-06-16T01:46:31.156Z,7.3
2023-06-16T01:48:30.546Z,7.3
2023-06-16T01:50:31.388Z,7.7
2023-06-16T01:52:30.272Z,6.2
2023-06-16T01:54:30.057Z,7.8
2023-06-16T01:56:30.342Z,7.5
2023-06-16T01:58:30.517Z,9.4
2023-06-16T02:00:35.138Z,9.5
2023-06-16T02:02:31.152Z,13.2
2023-06-16T02:04:32.288Z,8.3
2023-06-16T02:06:33.995Z,6.3
2023-06-16T02:08:31.293Z,5.9
2023-06-16T02:12:30.791Z,7.0
2023-06-16T02:14:30.895Z,8.6
2023-06-16T02:18:28.479Z,7.6
2023-06-16T02:20:28.804Z,6.3
2023-06-16T02:24:28.321Z,7.1
2023-06-16T02:26:27.909Z,9.9
2023-06-16T02:28:28.049Z,6.5
2023-06-16T02:30:27.639Z,7.6
2023-06-16T02:32:27.747Z,7.5
2023-06-16T02:34:27.665Z,6.4
2023-06-16T02:36:27.237Z,10.3
2023-06-16T02:38:27.169Z,9.8
2023-06-16T02:40:27.082Z,8.7
2023-06-16T02:42:26.833Z,7.9
2023-06-16T02:44:26.937Z,9.1
2023-06-16T02:46:26.559Z,8.3
2023-06-16T02:48:26.412Z,7.0
2023-06-16T02:50:26.340Z,6.9
2023-06-16T02:52:26.087Z,7.4
2023-06-16T02:54:25.912Z,8.5
2023-06-16T02:56:28.925Z,7.3
2023-06-16T02:58:25.672Z,7.2
2023-06-16T03:00:25.476Z,8.1
2023-06-16T03:02:25.439Z,8.6
2023-06-16T03:04:26.045Z,6.5
2023-06-16T03:06:29.372Z,9.1
2023-06-16T03:10:24.921Z,8.0
2023-06-16T03:12:24.844Z,8.5
2023-06-16T03:14:25.274Z,8.1
2023-06-16T03:20:23.940Z,6.3
2023-06-16T03:22:23.944Z,6.9
2023-06-16T03:24:23.781Z,9.9
2023-06-16T03:26:25.066Z,9.2
2023-06-16T03:28:23.713Z,8.7
2023-06-16T03:30:23.194Z,7.6
2023-06-16T03:32:22.977Z,8.3
2023-06-16T03:34:25.129Z,9.5
2023-06-16T03:38:22.403Z,9.6
2023-06-16T03:40:22.396Z,9.0
2023-06-16T03:44:21.911Z,7.1
2023-06-16T03:50:21.538Z,10.5
2023-06-16T03:54:21.135Z,9.4
2023-06-16T03:56:21.830Z,11.4
2023-06-16T03:58:20.770Z,8.0
2023-06-16T04:00:21.009Z,8.4
2023-06-16T04:02:20.506Z,7.0
2023-06-16T04:04:20.276Z,10.6
2023-06-16T04:06:20.370Z,10.1
2023-06-16T04:08:20.241Z,9.1
2023-06-16T04:12:19.574Z,7.6
2023-06-16T04:14:20.653Z,8.9
2023-06-16T04:16:19.289Z,8.1
2023-06-16T04:20:19.215Z,8.6
2023-06-16T04:22:18.703Z,8.3
2023-06-16T04:24:18.765Z,8.4
2023-06-16T04:26:22.193Z,8.1
2023-06-16T04:28:18.270Z,9.9
2023-06-16T04:30:22.324Z,15.3
2023-06-16T04:32:18.903Z,10.3
2023-06-16T04:36:19.565Z,8.5
2023-06-16T04:38:17.422Z,8.7
2023-06-16T04:42:17.418Z,9.5
2023-06-16T04:44:16.941Z,8.9
2023-06-16T04:46:17.230Z,10.0
2023-06-16T04:50:17.286Z,11.8
2023-06-16T04:54:18.529Z,9.6
2023-06-16T04:56:16.044Z,9.1
2023-06-16T04:58:15.823Z,11.0
2023-06-16T05:00:15.961Z,8.5
2023-06-16T05:02:15.731Z,8.2
2023-06-16T05:04:15.474Z,10.1
2023-06-16T05:06:15.247Z,8.5
2023-06-16T05:08:15.273Z,9.3
2023-06-16T05:10:14.945Z,7.8
2023-06-16T05:12:14.868Z,7.9
2023-06-16T05:14:14.763Z,12.4
2023-06-16T05:16:14.581Z,10.9
2023-06-16T05:18:14.593Z,12.4
2023-06-16T05:24:14.390Z,13.2
2023-06-16T05:26:13.895Z,11.1
2023-06-16T05:28:13.753Z,9.9
2023-06-16T05:30:13.737Z,8.9
2023-06-16T05:32:13.577Z,10.7
2023-06-16T05:34:13.406Z,11.1
2023-06-16T05:36:13.277Z,10.1
2023-06-16T05:38:13.375Z,10.7
2023-06-16T05:40:13.078Z,10.3
2023-06-16T05:42:14.130Z,11.6
2023-06-16T05:44:13.159Z,11.4
2023-06-16T05:46:12.574Z,16.2
2023-06-16T05:48:12.646Z,13.6
2023-06-16T05:50:12.477Z,15.0
2023-06-16T05:52:12.349Z,11.9
2023-06-16T05:54:12.144Z,14.8
2023-06-16T05:56:12.216Z,11.1
2023-06-16T05:58:11.963Z,12.2
2023-06-16T06:00:12.531Z,10.1
2023-06-16T06:02:13.666Z,10.3
2023-06-16T06:04:12.297Z,11.9
2023-06-16T06:06:12.237Z,11.7
2023-06-16T06:08:11.577Z,15.5
2023-06-16T06:10:11.208Z,12.1
2023-06-16T06:12:11.970Z,15.6
2023-06-16T06:14:11.386Z,12.9
2023-06-16T06:16:11.714Z,13.8
2023-06-16T06:18:10.824Z,14.9
2023-06-16T06:20:11.861Z,15.2
2023-06-16T06:22:10.590Z,11.9
2023-06-16T06:24:10.720Z,15.4
2023-06-16T06:26:10.475Z,12.3
2023-06-16T06:28:10.317Z,15.5
2023-06-16T06:30:10.497Z,14.0
2023-06-16T06:32:12.199Z,13.7
2023-06-16T06:34:10.245Z,14.9
2023-06-16T06:36:09.880Z,11.0
2023-06-16T06:38:10.854Z,14.4
2023-06-16T06:40:10.072Z,14.9
2023-06-16T06:42:12.161Z,17.6
2023-06-16T06:44:09.499Z,18.3
2023-06-16T06:46:09.461Z,15.9
2023-06-16T06:48:09.170Z,14.5
2023-06-16T06:50:10.017Z,17.3
2023-06-16T06:52:08.978Z,16.2
2023-06-16T06:54:08.821Z,17.7
2023-06-16T06:56:08.936Z,16.7
2023-06-16T06:58:08.760Z,15.2
2023-06-16T07:00:10.304Z,14.1
2023-06-16T07:02:08.605Z,14.8
2023-06-16T07:06:10.203Z,14.7
2023-06-16T07:08:08.640Z,15.6
2023-06-16T07:10:10.662Z,15.0
2023-06-16T07:12:09.087Z,13.4
2023-06-16T07:16:07.868Z,15.2
2023-06-16T07:18:07.967Z,11.8
2023-06-16T07:20:08.429Z,14.2
2023-06-16T07:22:07.705Z,13.7
2023-06-16T07:26:07.605Z,15.6
2023-06-16T07:30:08.592Z,13.1
2023-06-16T07:34:07.182Z,13.5
2023-06-16T07:36:07.286Z,13.7
2023-06-16T07:38:07.133Z,13.3
2023-06-16T07:40:08.817Z,11.4
2023-06-16T07:42:07.291Z,12.9
2023-06-16T07:44:07.068Z,15.3
2023-06-16T07:46:07.026Z,12.4
2023-06-16T07:48:08.921Z,18.1
2023-06-16T07:50:08.392Z,11.0
2023-06-16T07:52:07.406Z,14.3
2023-06-16T07:54:07.287Z,13.5
2023-06-16T07:56:06.860Z,15.6
2023-06-16T07:58:06.888Z,11.7
2023-06-16T08:00:11.027Z,10.6
2023-06-16T08:02:06.556Z,12.3
2023-06-16T08:06:06.466Z,8.8
2023-06-16T08:10:06.815Z,12.1
2023-06-16T08:12:09.802Z,9.5
2023-06-16T08:14:06.252Z,11.9
2023-06-16T08:16:06.360Z,11.4
2023-06-16T08:18:06.620Z,10.7
2023-06-16T08:20:07.494Z,11.8
2023-06-16T08:24:06.476Z,9.9
2023-06-16T08:26:06.182Z,9.1
2023-06-16T08:28:07.670Z,13.4
2023-06-16T08:30:06.606Z,13.1
2023-06-16T08:32:06.384Z,13.9
2023-06-16T08:34:06.025Z,10.3
2023-06-16T08:36:06.303Z,13.6
2023-06-16T08:38:05.725Z,9.9
2023-06-16T08:40:10.513Z,9.8
2023-06-16T08:42:06.560Z,13.6
2023-06-16T08:44:07.587Z,11.0
2023-06-16T08:46:08.625Z,9.8
2023-06-16T08:48:06.031Z,8.6
2023-06-16T08:50:07.686Z,12.5
2023-06-16T08:52:08.681Z,13.0
2023-06-16T08:54:09.195Z,13.1
2023-06-16T08:56:07.343Z,11.3
2023-06-16T08:58:08.052Z,11.5
2023-06-16T09:00:09.457Z,10.2
2023-06-16T09:02:06.369Z,10.6
2023-06-16T09:04:09.133Z,12.6
2023-06-16T09:06:06.028Z,10.6
2023-06-16T09:08:06.020Z,10.6
2023-06-16T09:10:06.476Z,11.0
2023-06-16T09:12:07.692Z,9.6
2023-06-16T09:14:11.075Z,11.3
2023-06-16T09:16:06.118Z,11.2
2023-06-16T09:18:07.052Z,7.3
2023-06-16T09:20:14.145Z,11.2
2023-06-16T09:22:05.651Z,16.5
2023-06-16T09:24:06.050Z,9.7
2023-06-16T09:26:13.813Z,14.8
2023-06-16T09:28:07.402Z,10.3
2023-06-16T09:30:06.582Z,12.2
2023-06-16T09:32:07.913Z,10.8
2023-06-16T09:34:06.795Z,6.5
2023-06-16T09:36:05.827Z,7.9
2023-06-16T09:38:07.029Z,11.3
2023-06-16T09:40:08.119Z,12.1
2023-06-16T09:42:11.899Z,11.9
2023-06-16T09:44:05.865Z,9.7
2023-06-16T09:46:09.216Z,10.8
2023-06-16T09:48:08.836Z,10.5
2023-06-16T09:50:10.971Z,11.0
2023-06-16T09:52:06.909Z,9.8
2023-06-16T09:56:06.522Z,10.1
2023-06-16T09:58:06.400Z,8.6
2023-06-16T10:00:09.255Z,7.1
2023-06-16T10:02:06.642Z,8.4
2023-06-16T10:04:07.845Z,8.1
2023-06-16T10:06:13.962Z,9.8
2023-06-16T10:08:07.251Z,7.9
2023-06-16T10:10:10.499Z,7.6
2023-06-16T10:12:08.953Z,8.4
2023-06-16T10:14:08.716Z,13.5
2023-06-16T10:16:10.109Z,6.7
2023-06-16T10:20:10.271Z,8.6
2023-06-16T10:22:09.069Z,7.9
2023-06-16T10:24:08.159Z,9.3
2023-06-16T10:26:07.939Z,6.9
2023-06-16T10:28:11.080Z,10.3
2023-06-16T10:30:09.530Z,8.3
2023-06-16T10:32:08.126Z,9.5
2023-06-16T10:34:07.052Z,7.1
2023-06-16T10:36:21.609Z,8.9
2023-06-16T10:38:07.052Z,9.5
2023-06-16T10:40:12.589Z,9.1
2023-06-16T10:44:25.002Z,8.0
2023-06-16T10:46:16.159Z,6.1
2023-06-16T10:50:07.702Z,7.5
2023-06-16T10:52:07.471Z,8.9
2023-06-16T10:54:08.395Z,6.5
2023-06-16T10:56:08.134Z,6.5
2023-06-16T10:58:21.331Z,7.7
2023-06-16T11:00:11.226Z,5.6
2023-06-16T11:02:17.885Z,6.1
2023-06-16T11:04:14.490Z,7.8
2023-06-16T11:06:10.383Z,8.2
2023-06-16T11:08:12.978Z,9.0
2023-06-16T11:10:09.097Z,8.4
2023-06-16T11:12:08.302Z,6.1
2023-06-16T11:14:08.473Z,8.0
2023-06-16T11:16:08.683Z,9.1
2023-06-16T11:18:08.673Z,7.1
2023-06-16T11:20:10.099Z,7.1
2023-06-16T11:24:09.627Z,8.1
2023-06-16T11:26:10.350Z,7.9
2023-06-16T11:28:09.935Z,7.0
2023-06-16T11:30:10.844Z,7.4
2023-06-16T11:32:09.503Z,7.3
2023-06-16T11:34:09.352Z,7.1
2023-06-16T11:36:13.929Z,6.2
2023-06-16T11:38:09.353Z,7.3
2023-06-16T11:40:11.488Z,10.8
2023-06-16T11:42:11.994Z,8.3
2023-06-16T11:44:13.370Z,9.3
2023-06-16T11:46:09.893Z,8.7
2023-06-16T11:48:10.212Z,7.6
2023-06-16T11:50:10.851Z,9.4
2023-06-16T11:52:09.975Z,9.9
2023-06-16T11:54:10.149Z,9.1
2023-06-16T11:56:13.999Z,8.3
2023-06-16T11:58:13.635Z,8.2
2023-06-16T12:00:13.212Z,8.3
2023-06-16T12:04:10.819Z,9.1
2023-06-16T12:06:12.911Z,7.4
2023-06-16T12:08:10.842Z,7.2
2023-06-16T12:10:10.916Z,8.6
2023-06-16T12:12:14.087Z,8.5
2023-06-16T12:14:10.878Z,8.2
2023-06-16T12:16:12.304Z,6.6
2023-06-16T12:18:11.073Z,7.0
2023-06-16T12:20:12.732Z,8.9
2023-06-16T12:22:11.212Z,7.7
2023-06-16T12:24:11.472Z,7.9
2023-06-16T12:26:29.881Z,8.6
2023-06-16T12:28:18.920Z,7.0
2023-06-16T12:30:14.321Z,8.1
2023-06-16T12:32:12.078Z,8.2
2023-06-16T12:34:19.599Z,9.6
2023-06-16T12:36:12.289Z,6.8
2023-06-16T12:38:12.176Z,10.1
2023-06-16T12:40:15.146Z,8.1
2023-06-16T12:42:12.596Z,6.8
2023-06-16T12:44:12.401Z,7.7
2023-06-16T12:48:12.967Z,10.9
2023-06-16T12:50:12.999Z,9.6
2023-06-16T12:52:14.820Z,6.6
2023-06-16T12:54:13.187Z,6.6
2023-06-16T13:00:13.775Z,6.9
2023-06-16T13:02:13.745Z,7.1
2023-06-16T13:04:13.966Z,6.5
2023-06-16T13:06:15.266Z,6.8
2023-06-16T13:08:13.938Z,8.7
2023-06-16T13:10:15.343Z,7.6
2023-06-16T13:12:14.814Z,6.3
2023-06-16T13:14:14.459Z,6.4
2023-06-16T13:16:17.091Z,5.1
2023-06-16T13:18:14.689Z,7.2
2023-06-16T13:20:14.886Z,7.1
2023-06-16T13:22:15.009Z,6.7
2023-06-16T13:24:16.958Z,5.1
2023-06-16T13:26:20.139Z,8.7
2023-06-16T13:28:15.412Z,8.3
2023-06-16T13:30:15.336Z,10.5
2023-06-16T13:32:15.464Z,6.4
2023-06-16T13:34:15.618Z,5.2
2023-06-16T13:38:15.956Z,8.1
2023-06-16T13:40:16.052Z,6.7
2023-06-16T13:42:16.099Z,11.5
2023-06-16T13:44:16.603Z,7.3
2023-06-16T13:46:17.070Z,6.9
2023-06-16T13:48:16.894Z,8.8
2023-06-16T13:50:16.947Z,12.6
2023-06-16T13:52:16.691Z,6.0
2023-06-16T13:54:16.966Z,7.6
2023-06-16T13:56:17.209Z,7.0
2023-06-16T13:58:17.232Z,7.2
2023-06-16T14:02:17.679Z,9.2
2023-06-16T14:06:17.707Z,7.0
2023-06-16T14:10:18.764Z,7.7
2023-06-16T14:12:18.162Z,10.2
2023-06-16T14:14:18.261Z,5.7
2023-06-16T14:16:18.404Z,5.2
2023-06-16T14:18:18.962Z,9.0
2023-06-16T14:20:19.018Z,6.3
2023-06-16T14:22:18.975Z,9.9
2023-06-16T14:24:18.972Z,7.0
2023-06-16T14:26:19.108Z,6.6
2023-06-16T14:28:19.274Z,9.7
2023-06-16T14:30:19.648Z,6.4
2023-06-16T14:32:19.786Z,5.5
2023-06-16T14:34:20.439Z,5.9
2023-06-16T14:36:19.826Z,9.3
2023-06-16T14:38:20.112Z,7.6
2023-06-16T14:42:20.432Z,7.8
2023-06-16T14:44:21.188Z,12.9
2023-06-16T14:46:20.586Z,6.7
2023-06-16T14:50:22.482Z,5.1
2023-06-16T14:52:21.099Z,5.7
2023-06-16T14:54:21.238Z,8.7
2023-06-16T14:56:21.681Z,6.5
2023-06-16T14:58:21.489Z,9.0
2023-06-16T15:00:22.034Z,6.6
2023-06-16T15:02:21.824Z,6.9
2023-06-16T15:04:23.794Z,21.4
2023-06-16T15:06:22.769Z,7.4
2023-06-16T15:08:22.342Z,5.5
2023-06-16T15:10:22.583Z,7.2
2023-06-16T15:12:22.892Z,5.2
2023-06-16T15:14:22.680Z,8.3
2023-06-16T15:16:23.129Z,6.1
2023-06-16T15:18:23.523Z,7.3
2023-06-16T15:20:23.120Z,8.6
2023-06-16T15:24:23.775Z,4.8
2023-06-16T15:26:23.533Z,7.2
2023-06-16T15:28:23.765Z,8.6
2023-06-16T15:30:23.996Z,6.9
2023-06-16T15:34:24.645Z,6.1
2023-06-16T15:36:24.544Z,6.9
2023-06-16T15:40:25.554Z,6.2
2023-06-16T15:42:24.738Z,4.7
2023-06-16T15:46:25.493Z,8.6
2023-06-16T15:48:25.626Z,7.8
2023-06-16T15:50:26.142Z,6.8
2023-06-16T15:52:25.492Z,6.2
2023-06-16T15:54:26.103Z,6.3
2023-06-16T15:58:26.026Z,6.9
2023-06-16T16:00:26.540Z,8.2
2023-06-16T16:02:26.670Z,6.6
2023-06-16T16:04:29.382Z,7.1
2023-06-16T16:06:26.747Z,7.7
2023-06-16T16:08:31.854Z,7.3
2023-06-16T16:10:26.944Z,6.6
2023-06-16T16:12:28.647Z,8.8
2023-06-16T16:14:27.559Z,7.6
2023-06-16T16:18:27.584Z,8.8
2023-06-16T16:20:28.000Z,7.7
2023-06-16T16:22:27.797Z,7.0
2023-06-16T16:24:27.997Z,7.9
2023-06-16T16:26:28.197Z,8.3
2023-06-16T16:30:28.623Z,6.6
2023-06-16T16:34:29.522Z,8.6
2023-06-16T16:36:29.025Z,6.0
2023-06-16T16:38:30.963Z,12.0
2023-06-16T16:40:29.167Z,5.8
2023-06-16T16:42:29.339Z,9.0
2023-06-16T16:44:30.158Z,7.9
2023-06-16T16:48:29.708Z,7.6
2023-06-16T16:50:29.790Z,8.4
2023-06-16T16:52:30.063Z,6.6
2023-06-16T16:54:30.146Z,8.4
2023-06-16T16:58:30.657Z,7.1
2023-06-16T17:00:31.101Z,7.0
2023-06-16T17:02:30.638Z,7.8
2023-06-16T17:04:31.348Z,7.2
2023-06-16T17:06:30.825Z,9.1
2023-06-16T17:08:31.075Z,6.6
2023-06-16T17:12:31.479Z,6.9
2023-06-16T17:14:31.420Z,6.4
2023-06-16T17:16:32.186Z,8.4
2023-06-16T17:18:31.764Z,9.2
2023-06-16T17:24:32.469Z,7.6
2023-06-16T17:26:32.740Z,8.2
2023-06-16T17:28:32.621Z,5.7
2023-06-16T17:32:32.805Z,6.2
2023-06-16T17:36:33.203Z,6.9
2023-06-16T17:38:32.991Z,6.2
2023-06-16T17:40:34.461Z,8.2
2023-06-16T17:44:33.370Z,14.6
2023-06-16T17:46:34.947Z,7.9
2023-06-16T17:48:33.773Z,7.0
2023-06-16T17:50:34.115Z,7.2
2023-06-16T17:52:33.908Z,8.1
2023-06-16T17:54:34.381Z,7.0
2023-06-16T17:56:35.165Z,8.2
2023-06-16T17:58:34.550Z,8.8
2023-06-16T18:00:34.730Z,6.6
2023-06-16T18:02:34.700Z,9.9
2023-06-16T18:04:35.015Z,9.1
2023-06-16T18:10:35.324Z,8.8
2023-06-16T18:12:35.594Z,5.3
2023-06-16T18:16:35.804Z,8.4
2023-06-16T18:18:35.821Z,12.4
2023-06-16T18:20:36.082Z,8.3
2023-06-16T18:22:36.348Z,9.7
2023-06-16T18:24:36.206Z,8.5
2023-06-16T18:30:36.666Z,9.1
2023-06-16T18:32:37.307Z,9.8
2023-06-16T18:34:36.682Z,9.8
2023-06-16T18:36:37.634Z,10.5
2023-06-16T18:38:41.617Z,7.1
2023-06-16T18:40:37.265Z,7.9
2023-06-16T18:42:37.590Z,7.8
2023-06-16T18:44:37.817Z,10.8
2023-06-16T18:48:37.638Z,8.4
2023-06-16T18:50:37.992Z,9.9
2023-06-16T18:52:37.952Z,7.5
2023-06-16T18:54:39.519Z,9.2
2023-06-16T18:56:39.445Z,9.7
2023-06-16T18:58:38.278Z,12.3
2023-06-16T19:00:38.440Z,12.3
2023-06-16T19:02:38.672Z,8.7
2023-06-16T19:04:38.669Z,9.5
2023-06-16T19:06:39.344Z,7.5
2023-06-16T19:10:39.379Z,7.4
2023-06-16T19:14:40.614Z,7.8
2023-06-16T19:16:40.582Z,9.4
2023-06-16T19:18:39.449Z,6.9
2023-06-16T19:20:39.642Z,6.0
2023-06-16T19:22:40.485Z,7.1
2023-06-16T19:24:40.190Z,8.8
2023-06-16T19:26:40.118Z,8.7
2023-06-16T19:28:46.333Z,7.8
2023-06-16T19:30:40.378Z,8.9
2023-06-16T19:34:40.729Z,10.1
2023-06-16T19:38:40.761Z,8.2
2023-06-16T19:40:40.822Z,10.2
2023-06-16T19:44:40.692Z,7.0
2023-06-16T19:48:41.894Z,8.6
2023-06-16T19:50:41.036Z,10.4
2023-06-16T19:52:42.863Z,9.8
2023-06-16T19:54:41.359Z,11.3
2023-06-16T19:56:41.137Z,8.8
2023-06-16T19:58:43.029Z,6.5
2023-06-16T20:00:41.419Z,7.4
2023-06-16T20:04:43.762Z,8.5
2023-06-16T20:06:41.727Z,7.3
2023-06-16T20:08:41.521Z,10.3
2023-06-16T20:10:42.542Z,8.6
2023-06-16T20:12:41.614Z,8.3
2023-06-16T20:14:41.778Z,8.8
2023-06-16T20:16:42.131Z,7.1
2023-06-16T20:18:41.945Z,9.5
2023-06-16T20:20:48.836Z,8.9
2023-06-16T20:22:41.889Z,10.9
2023-06-16T20:24:42.015Z,8.6
2023-06-16T20:26:42.772Z,10.2
2023-06-16T20:28:42.193Z,9.8
2023-06-16T20:30:42.308Z,7.6
2023-06-16T20:34:42.233Z,9.5
2023-06-16T20:36:45.121Z,7.4
2023-06-16T20:38:42.055Z,8.9
2023-06-16T20:40:44.769Z,8.4
2023-06-16T20:42:45.997Z,7.9
2023-06-16T20:44:42.174Z,8.8
2023-06-16T20:46:42.583Z,7.0
2023-06-16T20:48:43.651Z,8.6
2023-06-16T20:50:44.188Z,10.6
2023-06-16T20:52:42.825Z,8.3
2023-06-16T20:56:42.039Z,9.6
2023-06-16T20:58:43.325Z,10.0
2023-06-16T21:00:42.094Z,10.7
2023-06-16T21:04:42.406Z,8.5
2023-06-16T21:06:43.644Z,7.8
2023-06-16T21:10:42.401Z,7.8
2023-06-16T21:12:42.416Z,9.9
2023-06-16T21:14:42.183Z,8.0
2023-06-16T21:16:42.146Z,7.8
2023-06-16T21:18:42.054Z,9.4
2023-06-16T21:20:42.368Z,7.6
2023-06-16T21:22:47.261Z,11.2
2023-06-16T21:24:42.052Z,8.3
2023-06-16T21:26:42.136Z,7.1
2023-06-16T21:30:42.412Z,9.5
2023-06-16T21:34:42.991Z,12.5
2023-06-16T21:36:41.948Z,6.0
2023-06-16T21:38:43.871Z,7.9
2023-06-16T21:42:43.554Z,13.5
2023-06-16T21:44:41.900Z,7.1
2023-06-16T21:46:42.088Z,7.6
2023-06-16T21:50:41.797Z,9.3
2023-06-16T21:54:44.076Z,7.5
2023-06-16T21:56:41.880Z,7.4
2023-06-16T21:58:41.915Z,7.2
2023-06-16T22:00:41.820Z,8.3
2023-06-16T22:02:41.915Z,9.7
2023-06-16T22:04:42.226Z,9.3
2023-06-16T22:06:45.085Z,7.9
2023-06-16T22:08:41.769Z,8.3
2023-06-16T22:10:41.760Z,7.0
2023-06-16T22:12:42.915Z,8.3
2023-06-16T22:14:43.222Z,7.1
2023-06-16T22:16:41.736Z,7.2
2023-06-16T22:18:41.656Z,6.8
2023-06-16T22:20:41.917Z,7.6
2023-06-16T22:22:41.643Z,9.0
2023-06-16T22:26:42.651Z,7.7
2023-06-16T22:28:43.279Z,7.9
2023-06-16T22:30:41.559Z,7.8
2023-06-16T22:32:41.496Z,8.1
2023-06-16T22:34:41.257Z,7.6
2023-06-16T22:36:41.204Z,7.5
2023-06-16T22:38:41.168Z,6.4
2023-06-16T22:42:41.016Z,8.5
2023-06-16T22:44:41.040Z,8.4
2023-06-16T22:46:41.891Z,6.2
2023-06-16T22:50:42.064Z,6.0
2023-06-16T22:54:40.858Z,7.3
2023-06-16T22:58:40.874Z,9.6
2023-06-16T23:00:40.563Z,8.2
2023-06-16T23:04:40.583Z,10.3
2023-06-16T23:06:41.064Z,7.4
2023-06-16T23:08:40.331Z,8.8
2023-06-16T23:10:40.325Z,9.2
2023-06-16T23:12:40.188Z,7.5
2023-06-16T23:14:40.162Z,8.5
2023-06-16T23:16:40.620Z,8.4
2023-06-16T23:18:40.476Z,7.1
2023-06-16T23:20:40.943Z,8.0
2023-06-16T23:22:39.965Z,10.0
2023-06-16T23:24:41.825Z,8.9
2023-06-16T23:26:44.242Z,7.8
2023-06-16T23:28:39.890Z,8.7
2023-06-16T23:32:39.776Z,8.9
2023-06-16T23:34:39.634Z,10.5
2023-06-16T23:36:40.793Z,8.7
2023-06-16T23:38:39.859Z,8.1
2023-06-16T23:40:39.664Z,6.0
2023-06-16T23:42:40.885Z,7.3
2023-06-16T23:44:39.447Z,6.4
2023-06-16T23:46:39.304Z,6.5
2023-06-16T23:48:39.364Z,6.5
2023-06-16T23:50:39.915Z,9.8
2023-06-16T23:52:39.878Z,8.0
2023-06-16T23:54:39.829Z,8.3
2023-06-16T23:56:39.033Z,11.9
2023-06-16T23:58:39.126Z,7.1
